sensor_id;sensor_type;location;lat;lon;timestamp;P1;P2;P0
72329;PMS5003;69154;52.076;5.110;2023-06-19T00:00:55;30;30;
72329;PMS5003;69154;52.076;5.110;2023-06-19T00:03:20;29;28;
72329;PMS5003;69154;52.076;5.110;2023-06-19T00:05:45;33;32;
72329;PMS5003;69154;52.076;5.110;2023-06-19T00:08:11;30;29;
72329;PMS5003;69154;52.076;5.110;2023-06-19T00:10:37;29;29;
72329;PMS5003;69154;52.076;5.110;2023-06-19T00:13:02;30;29;
72329;PMS5003;69154;52.076;5.110;2023-06-19T00:15:27;26;26;
72329;PMS5003;69154;52.076;5.110;2023-06-19T00:17:52;29;29;
72329;PMS5003;69154;52.076;5.110;2023-06-19T00:20:17;31;30;
72329;PMS5003;69154;52.076;5.110;2023-06-19T00:22:43;30;30;
72329;PMS5003;69154;52.076;5.110;2023-06-19T00:25:08;24;24;
72329;PMS5003;69154;52.076;5.110;2023-06-19T00:27:34;26;23;
72329;PMS5003;69154;52.076;5.110;2023-06-19T00:29:59;24;22;
72329;PMS5003;69154;52.076;5.110;2023-06-19T00:32:25;28;26;
72329;PMS5003;69154;52.076;5.110;2023-06-19T00:34:50;26;26;
72329;PMS5003;69154;52.076;5.110;2023-06-19T00:37:15;26;22;
72329;PMS5003;69154;52.076;5.110;2023-06-19T00:39:40;26;26;
72329;PMS5003;69154;52.076;5.110;2023-06-19T00:42:06;30;29;
72329;PMS5003;69154;52.076;5.110;2023-06-19T00:44:31;25;25;
72329;PMS5003;69154;52.076;5.110;2023-06-19T00:46:58;28;27;
72329;PMS5003;69154;52.076;5.110;2023-06-19T00:49:22;26;26;
72329;PMS5003;69154;52.076;5.110;2023-06-19T00:51:48;24;23;
72329;PMS5003;69154;52.076;5.110;2023-06-19T00:54:14;26;26;
72329;PMS5003;69154;52.076;5.110;2023-06-19T00:56:39;16;16;
72329;PMS5003;69154;52.076;5.110;2023-06-19T00:59:06;14;14;
72329;PMS5003;69154;52.076;5.110;2023-06-19T01:01:31;14;14;
72329;PMS5003;69154;52.076;5.110;2023-06-19T01:03:57;12;12;
72329;PMS5003;69154;52.076;5.110;2023-06-19T01:06:23;11;11;
72329;PMS5003;69154;52.076;5.110;2023-06-19T01:08:51;8;8;
72329;PMS5003;69154;52.076;5.110;2023-06-19T01:11:15;7;7;
72329;PMS5003;69154;52.076;5.110;2023-06-19T01:13:41;5;5;
72329;PMS5003;69154;52.076;5.110;2023-06-19T01:16:06;6;6;
72329;PMS5003;69154;52.076;5.110;2023-06-19T01:18:31;5;5;
72329;PMS5003;69154;52.076;5.110;2023-06-19T01:21:08;6;6;
72329;PMS5003;69154;52.076;5.110;2023-06-19T01:23:23;7;7;
72329;PMS5003;69154;52.076;5.110;2023-06-19T01:25:49;9;9;
72329;PMS5003;69154;52.076;5.110;2023-06-19T01:28:14;8;8;
72329;PMS5003;69154;52.076;5.110;2023-06-19T01:30:40;7;7;
72329;PMS5003;69154;52.076;5.110;2023-06-19T01:33:06;8;8;
72329;PMS5003;69154;52.076;5.110;2023-06-19T01:35:33;8;8;
72329;PMS5003;69154;52.076;5.110;2023-06-19T01:37:58;9;8;
72329;PMS5003;69154;52.076;5.110;2023-06-19T01:40:23;7;7;
72329;PMS5003;69154;52.076;5.110;2023-06-19T01:42:49;7;7;
72329;PMS5003;69154;52.076;5.110;2023-06-19T01:45:15;8;8;
72329;PMS5003;69154;52.076;5.110;2023-06-19T01:47:40;11;9;
72329;PMS5003;69154;52.076;5.110;2023-06-19T01:50:06;8;8;
72329;PMS5003;69154;52.076;5.110;2023-06-19T01:52:32;7;7;
72329;PMS5003;69154;52.076;5.110;2023-06-19T01:54:58;7;7;
72329;PMS5003;69154;52.076;5.110;2023-06-19T01:57:23;9;9;
72329;PMS5003;69154;52.076;5.110;2023-06-19T01:59:49;6;6;
72329;PMS5003;69154;52.076;5.110;2023-06-19T02:02:15;9;9;
72329;PMS5003;69154;52.076;5.110;2023-06-19T02:04:41;7;7;
72329;PMS5003;69154;52.076;5.110;2023-06-19T02:07:06;9;8;
72329;PMS5003;69154;52.076;5.110;2023-06-19T02:09:33;7;7;
72329;PMS5003;69154;52.076;5.110;2023-06-19T02:11:58;7;7;
72329;PMS5003;69154;52.076;5.110;2023-06-19T02:14:23;10;10;
72329;PMS5003;69154;52.076;5.110;2023-06-19T02:16:49;9;9;
72329;PMS5003;69154;52.076;5.110;2023-06-19T02:19:15;11;10;
72329;PMS5003;69154;52.076;5.110;2023-06-19T02:21:41;11;11;
72329;PMS5003;69154;52.076;5.110;2023-06-19T02:24:06;11;10;
72329;PMS5003;69154;52.076;5.110;2023-06-19T02:26:33;10;10;
72329;PMS5003;69154;52.076;5.110;2023-06-19T02:28:58;12;11;
72329;PMS5003;69154;52.076;5.110;2023-06-19T02:31:24;12;12;
72329;PMS5003;69154;52.076;5.110;2023-06-19T02:33:49;11;11;
72329;PMS5003;69154;52.076;5.110;2023-06-19T02:36:15;12;12;
72329;PMS5003;69154;52.076;5.110;2023-06-19T02:38:41;10;10;
72329;PMS5003;69154;52.076;5.110;2023-06-19T02:41:07;11;10;
72329;PMS5003;69154;52.076;5.110;2023-06-19T02:43:32;10;10;
72329;PMS5003;69154;52.076;5.110;2023-06-19T02:45:58;9;9;
72329;PMS5003;69154;52.076;5.110;2023-06-19T02:48:23;13;13;
72329;PMS5003;69154;52.076;5.110;2023-06-19T02:50:49;11;11;
72329;PMS5003;69154;52.076;5.110;2023-06-19T02:53:15;10;10;
72329;PMS5003;69154;52.076;5.110;2023-06-19T02:55:41;13;13;
72329;PMS5003;69154;52.076;5.110;2023-06-19T02:58:06;12;11;
72329;PMS5003;69154;52.076;5.110;2023-06-19T03:00:32;13;12;
72329;PMS5003;69154;52.076;5.110;2023-06-19T03:02:58;13;13;
72329;PMS5003;69154;52.076;5.110;2023-06-19T03:05:23;15;14;
72329;PMS5003;69154;52.076;5.110;2023-06-19T03:07:49;16;15;
72329;PMS5003;69154;52.076;5.110;2023-06-19T03:10:15;15;15;
72329;PMS5003;69154;52.076;5.110;2023-06-19T03:12:41;16;14;
72329;PMS5003;69154;52.076;5.110;2023-06-19T03:15:07;15;14;
72329;PMS5003;69154;52.076;5.110;2023-06-19T03:17:32;18;16;
72329;PMS5003;69154;52.076;5.110;2023-06-19T03:19:58;19;19;
72329;PMS5003;69154;52.076;5.110;2023-06-19T03:22:24;14;13;
72329;PMS5003;69154;52.076;5.110;2023-06-19T03:24:50;16;16;
72329;PMS5003;69154;52.076;5.110;2023-06-19T03:27:15;17;17;
72329;PMS5003;69154;52.076;5.110;2023-06-19T03:29:41;18;17;
72329;PMS5003;69154;52.076;5.110;2023-06-19T03:32:06;22;22;
72329;PMS5003;69154;52.076;5.110;2023-06-19T03:34:31;20;19;
72329;PMS5003;69154;52.076;5.110;2023-06-19T03:36:57;26;25;
72329;PMS5003;69154;52.076;5.110;2023-06-19T03:39:22;22;22;
72329;PMS5003;69154;52.076;5.110;2023-06-19T03:41:48;24;24;
72329;PMS5003;69154;52.076;5.110;2023-06-19T03:44:13;23;23;
72329;PMS5003;69154;52.076;5.110;2023-06-19T03:46:39;32;31;
72329;PMS5003;69154;52.076;5.110;2023-06-19T03:49:04;29;26;
72329;PMS5003;69154;52.076;5.110;2023-06-19T03:51:30;28;28;
72329;PMS5003;69154;52.076;5.110;2023-06-19T03:53:56;31;29;
72329;PMS5003;69154;52.076;5.110;2023-06-19T03:56:21;32;30;
72329;PMS5003;69154;52.076;5.110;2023-06-19T03:58:46;32;30;
72329;PMS5003;69154;52.076;5.110;2023-06-19T04:01:12;31;30;
72329;PMS5003;69154;52.076;5.110;2023-06-19T04:03:38;31;29;
72329;PMS5003;69154;52.076;5.110;2023-06-19T04:06:03;29;28;
72329;PMS5003;69154;52.076;5.110;2023-06-19T04:08:29;23;23;
72329;PMS5003;69154;52.076;5.110;2023-06-19T04:10:54;32;31;
72329;PMS5003;69154;52.076;5.110;2023-06-19T04:13:20;27;25;
72329;PMS5003;69154;52.076;5.110;2023-06-19T04:15:45;24;23;
72329;PMS5003;69154;52.076;5.110;2023-06-19T04:18:11;29;28;
72329;PMS5003;69154;52.076;5.110;2023-06-19T04:20:37;28;27;
72329;PMS5003;69154;52.076;5.110;2023-06-19T04:23:03;28;27;
72329;PMS5003;69154;52.076;5.110;2023-06-19T04:25:28;27;26;
72329;PMS5003;69154;52.076;5.110;2023-06-19T04:27:53;30;29;
72329;PMS5003;69154;52.076;5.110;2023-06-19T04:30:18;26;25;
72329;PMS5003;69154;52.076;5.110;2023-06-19T04:32:44;21;20;
72329;PMS5003;69154;52.076;5.110;2023-06-19T04:35:09;20;20;
72329;PMS5003;69154;52.076;5.110;2023-06-19T04:37:35;16;16;
72329;PMS5003;69154;52.076;5.110;2023-06-19T04:40:01;14;13;
72329;PMS5003;69154;52.076;5.110;2023-06-19T04:42:27;12;12;
72329;PMS5003;69154;52.076;5.110;2023-06-19T04:44:52;13;11;
72329;PMS5003;69154;52.076;5.110;2023-06-19T04:47:19;10;9;
72329;PMS5003;69154;52.076;5.110;2023-06-19T04:49:43;7;7;
72329;PMS5003;69154;52.076;5.110;2023-06-19T04:52:09;7;6;
72329;PMS5003;69154;52.076;5.110;2023-06-19T04:54:35;8;7;
72329;PMS5003;69154;52.076;5.110;2023-06-19T04:57:01;6;6;
72329;PMS5003;69154;52.076;5.110;2023-06-19T04:59:26;5;4;
72329;PMS5003;69154;52.076;5.110;2023-06-19T05:01:52;7;5;
72329;PMS5003;69154;52.076;5.110;2023-06-19T05:04:18;5;5;
72329;PMS5003;69154;52.076;5.110;2023-06-19T05:06:44;6;6;
72329;PMS5003;69154;52.076;5.110;2023-06-19T05:09:10;6;6;
72329;PMS5003;69154;52.076;5.110;2023-06-19T05:11:36;5;5;
72329;PMS5003;69154;52.076;5.110;2023-06-19T05:14:01;6;6;
72329;PMS5003;69154;52.076;5.110;2023-06-19T05:16:27;6;6;
72329;PMS5003;69154;52.076;5.110;2023-06-19T05:18:53;7;7;
72329;PMS5003;69154;52.076;5.110;2023-06-19T05:21:19;5;5;
72329;PMS5003;69154;52.076;5.110;2023-06-19T05:23:45;9;9;
72329;PMS5003;69154;52.076;5.110;2023-06-19T05:26:10;10;10;
72329;PMS5003;69154;52.076;5.110;2023-06-19T05:28:36;11;11;
72329;PMS5003;69154;52.076;5.110;2023-06-19T05:31:02;15;14;
72329;PMS5003;69154;52.076;5.110;2023-06-19T05:33:28;13;13;
72329;PMS5003;69154;52.076;5.110;2023-06-19T05:35:54;13;12;
72329;PMS5003;69154;52.076;5.110;2023-06-19T05:38:19;15;15;
72329;PMS5003;69154;52.076;5.110;2023-06-19T05:40:45;17;17;
72329;PMS5003;69154;52.076;5.110;2023-06-19T05:43:10;17;15;
72329;PMS5003;69154;52.076;5.110;2023-06-19T05:45:37;13;13;
72329;PMS5003;69154;52.076;5.110;2023-06-19T05:48:02;17;16;
72329;PMS5003;69154;52.076;5.110;2023-06-19T05:50:27;22;19;
72329;PMS5003;69154;52.076;5.110;2023-06-19T05:52:53;18;17;
72329;PMS5003;69154;52.076;5.110;2023-06-19T05:55:18;15;14;
72329;PMS5003;69154;52.076;5.110;2023-06-19T05:57:44;14;13;
72329;PMS5003;69154;52.076;5.110;2023-06-19T06:00:10;10;10;
72329;PMS5003;69154;52.076;5.110;2023-06-19T06:02:36;14;14;
72329;PMS5003;69154;52.076;5.110;2023-06-19T06:05:02;12;12;
72329;PMS5003;69154;52.076;5.110;2023-06-19T06:07:27;13;13;
72329;PMS5003;69154;52.076;5.110;2023-06-19T06:09:53;13;12;
72329;PMS5003;69154;52.076;5.110;2023-06-19T06:12:18;14;14;
72329;PMS5003;69154;52.076;5.110;2023-06-19T06:14:44;17;17;
72329;PMS5003;69154;52.076;5.110;2023-06-19T06:17:10;14;14;
72329;PMS5003;69154;52.076;5.110;2023-06-19T06:19:35;17;16;
72329;PMS5003;69154;52.076;5.110;2023-06-19T06:22:00;20;19;
72329;PMS5003;69154;52.076;5.110;2023-06-19T06:24:25;17;17;
72329;PMS5003;69154;52.076;5.110;2023-06-19T06:26:51;20;19;
72329;PMS5003;69154;52.076;5.110;2023-06-19T06:29:17;19;17;
72329;PMS5003;69154;52.076;5.110;2023-06-19T06:31:45;25;24;
72329;PMS5003;69154;52.076;5.110;2023-06-19T06:34:08;23;22;
72329;PMS5003;69154;52.076;5.110;2023-06-19T06:36:33;29;28;
72329;PMS5003;69154;52.076;5.110;2023-06-19T06:38:59;26;25;
72329;PMS5003;69154;52.076;5.110;2023-06-19T06:41:24;27;26;
72329;PMS5003;69154;52.076;5.110;2023-06-19T06:43:50;27;26;
72329;PMS5003;69154;52.076;5.110;2023-06-19T06:46:15;26;26;
72329;PMS5003;69154;52.076;5.110;2023-06-19T06:48:41;31;30;
72329;PMS5003;69154;52.076;5.110;2023-06-19T06:51:06;28;27;
72329;PMS5003;69154;52.076;5.110;2023-06-19T06:53:31;23;23;
72329;PMS5003;69154;52.076;5.110;2023-06-19T06:55:57;27;26;
72329;PMS5003;69154;52.076;5.110;2023-06-19T06:58:22;29;28;
72329;PMS5003;69154;52.076;5.110;2023-06-19T07:00:47;27;27;
72329;PMS5003;69154;52.076;5.110;2023-06-19T07:03:12;26;25;
72329;PMS5003;69154;52.076;5.110;2023-06-19T07:05:38;25;25;
72329;PMS5003;69154;52.076;5.110;2023-06-19T07:08:04;28;26;
72329;PMS5003;69154;52.076;5.110;2023-06-19T07:10:29;25;23;
72329;PMS5003;69154;52.076;5.110;2023-06-19T07:12:54;26;25;
72329;PMS5003;69154;52.076;5.110;2023-06-19T07:15:20;28;28;
72329;PMS5003;69154;52.076;5.110;2023-06-19T07:17:46;28;27;
72329;PMS5003;69154;52.076;5.110;2023-06-19T07:20:12;26;26;
72329;PMS5003;69154;52.076;5.110;2023-06-19T07:22:37;26;26;
72329;PMS5003;69154;52.076;5.110;2023-06-19T07:25:03;28;27;
72329;PMS5003;69154;52.076;5.110;2023-06-19T07:27:28;25;24;
72329;PMS5003;69154;52.076;5.110;2023-06-19T07:29:54;29;28;
72329;PMS5003;69154;52.076;5.110;2023-06-19T07:32:19;30;28;
72329;PMS5003;69154;52.076;5.110;2023-06-19T07:34:44;37;36;
72329;PMS5003;69154;52.076;5.110;2023-06-19T07:37:09;41;39;
72329;PMS5003;69154;52.076;5.110;2023-06-19T07:39:35;37;36;
72329;PMS5003;69154;52.076;5.110;2023-06-19T07:42:01;35;34;
72329;PMS5003;69154;52.076;5.110;2023-06-19T07:44:26;34;31;
72329;PMS5003;69154;52.076;5.110;2023-06-19T07:46:51;32;32;
72329;PMS5003;69154;52.076;5.110;2023-06-19T07:49:16;41;35;
72329;PMS5003;69154;52.076;5.110;2023-06-19T07:51:41;36;34;
72329;PMS5003;69154;52.076;5.110;2023-06-19T07:54:07;33;31;
72329;PMS5003;69154;52.076;5.110;2023-06-19T07:56:33;29;29;
72329;PMS5003;69154;52.076;5.110;2023-06-19T07:58:59;37;35;
72329;PMS5003;69154;52.076;5.110;2023-06-19T08:01:24;40;39;
72329;PMS5003;69154;52.076;5.110;2023-06-19T08:03:49;34;33;
72329;PMS5003;69154;52.076;5.110;2023-06-19T08:06:14;37;37;
72329;PMS5003;69154;52.076;5.110;2023-06-19T08:08:40;35;35;
72329;PMS5003;69154;52.076;5.110;2023-06-19T08:11:05;33;30;
72329;PMS5003;69154;52.076;5.110;2023-06-19T08:13:31;33;32;
72329;PMS5003;69154;52.076;5.110;2023-06-19T08:15:56;37;34;
72329;PMS5003;69154;52.076;5.110;2023-06-19T08:18:21;34;33;
72329;PMS5003;69154;52.076;5.110;2023-06-19T08:20:46;40;38;
72329;PMS5003;69154;52.076;5.110;2023-06-19T08:23:12;41;39;
72329;PMS5003;69154;52.076;5.110;2023-06-19T08:25:37;39;38;
72329;PMS5003;69154;52.076;5.110;2023-06-19T08:28:03;40;39;
72329;PMS5003;69154;52.076;5.110;2023-06-19T08:30:28;44;43;
72329;PMS5003;69154;52.076;5.110;2023-06-19T08:32:53;42;41;
72329;PMS5003;69154;52.076;5.110;2023-06-19T08:35:18;34;33;
72329;PMS5003;69154;52.076;5.110;2023-06-19T08:37:44;42;42;
72329;PMS5003;69154;52.076;5.110;2023-06-19T08:40:09;40;40;
72329;PMS5003;69154;52.076;5.110;2023-06-19T08:42:34;44;42;
72329;PMS5003;69154;52.076;5.110;2023-06-19T08:44:59;38;36;
72329;PMS5003;69154;52.076;5.110;2023-06-19T08:47:28;34;34;
72329;PMS5003;69154;52.076;5.110;2023-06-19T08:49:50;38;37;
72329;PMS5003;69154;52.076;5.110;2023-06-19T08:52:15;43;40;
72329;PMS5003;69154;52.076;5.110;2023-06-19T08:54:41;32;31;
72329;PMS5003;69154;52.076;5.110;2023-06-19T08:57:06;37;35;
72329;PMS5003;69154;52.076;5.110;2023-06-19T08:59:31;41;39;
72329;PMS5003;69154;52.076;5.110;2023-06-19T09:01:57;40;40;
72329;PMS5003;69154;52.076;5.110;2023-06-19T09:04:23;39;38;
72329;PMS5003;69154;52.076;5.110;2023-06-19T09:06:48;38;38;
72329;PMS5003;69154;52.076;5.110;2023-06-19T09:09:14;46;42;
72329;PMS5003;69154;52.076;5.110;2023-06-19T09:11:40;43;41;
72329;PMS5003;69154;52.076;5.110;2023-06-19T09:14:05;45;44;
72329;PMS5003;69154;52.076;5.110;2023-06-19T09:16:36;42;41;
72329;PMS5003;69154;52.076;5.110;2023-06-19T09:18:56;34;34;
72329;PMS5003;69154;52.076;5.110;2023-06-19T09:21:21;40;39;
72329;PMS5003;69154;52.076;5.110;2023-06-19T09:23:47;38;36;
72329;PMS5003;69154;52.076;5.110;2023-06-19T09:26:13;35;34;
72329;PMS5003;69154;52.076;5.110;2023-06-19T09:28:40;36;35;
72329;PMS5003;69154;52.076;5.110;2023-06-19T09:31:03;41;38;
72329;PMS5003;69154;52.076;5.110;2023-06-19T09:33:29;39;35;
72329;PMS5003;69154;52.076;5.110;2023-06-19T09:35:54;32;31;
72329;PMS5003;69154;52.076;5.110;2023-06-19T09:38:21;30;28;
72329;PMS5003;69154;52.076;5.110;2023-06-19T09:40:45;35;33;
72329;PMS5003;69154;52.076;5.110;2023-06-19T09:43:10;33;32;
72329;PMS5003;69154;52.076;5.110;2023-06-19T09:45:35;32;31;
72329;PMS5003;69154;52.076;5.110;2023-06-19T09:48:00;31;30;
72329;PMS5003;69154;52.076;5.110;2023-06-19T09:50:26;29;29;
72329;PMS5003;69154;52.076;5.110;2023-06-19T09:52:51;37;35;
72329;PMS5003;69154;52.076;5.110;2023-06-19T09:55:17;38;37;
72329;PMS5003;69154;52.076;5.110;2023-06-19T09:57:43;38;37;
72329;PMS5003;69154;52.076;5.110;2023-06-19T10:00:08;33;33;
72329;PMS5003;69154;52.076;5.110;2023-06-19T10:02:33;38;37;
72329;PMS5003;69154;52.076;5.110;2023-06-19T10:04:59;34;34;
72329;PMS5003;69154;52.076;5.110;2023-06-19T10:07:25;39;39;
72329;PMS5003;69154;52.076;5.110;2023-06-19T10:09:57;36;34;
72329;PMS5003;69154;52.076;5.110;2023-06-19T10:12:15;36;36;
72329;PMS5003;69154;52.076;5.110;2023-06-19T10:14:46;36;34;
72329;PMS5003;69154;52.076;5.110;2023-06-19T10:17:08;33;32;
72329;PMS5003;69154;52.076;5.110;2023-06-19T10:19:32;35;34;
72329;PMS5003;69154;52.076;5.110;2023-06-19T10:21:57;34;33;
72329;PMS5003;69154;52.076;5.110;2023-06-19T10:24:23;37;36;
72329;PMS5003;69154;52.076;5.110;2023-06-19T10:26:56;32;31;
72329;PMS5003;69154;52.076;5.110;2023-06-19T10:29:14;32;32;
72329;PMS5003;69154;52.076;5.110;2023-06-19T10:31:39;33;30;
72329;PMS5003;69154;52.076;5.110;2023-06-19T10:34:04;34;32;
72329;PMS5003;69154;52.076;5.110;2023-06-19T10:36:30;35;32;
72329;PMS5003;69154;52.076;5.110;2023-06-19T10:38:55;37;36;
72329;PMS5003;69154;52.076;5.110;2023-06-19T10:41:21;31;31;
72329;PMS5003;69154;52.076;5.110;2023-06-19T10:43:52;36;36;
72329;PMS5003;69154;52.076;5.110;2023-06-19T10:46:12;34;33;
72329;PMS5003;69154;52.076;5.110;2023-06-19T10:48:37;36;36;
72329;PMS5003;69154;52.076;5.110;2023-06-19T10:51:03;40;35;
72329;PMS5003;69154;52.076;5.110;2023-06-19T10:53:30;32;30;
72329;PMS5003;69154;52.076;5.110;2023-06-19T10:55:55;34;33;
72329;PMS5003;69154;52.076;5.110;2023-06-19T10:58:20;31;30;
72329;PMS5003;69154;52.076;5.110;2023-06-19T11:00:46;35;34;
72329;PMS5003;69154;52.076;5.110;2023-06-19T11:03:11;32;30;
72329;PMS5003;69154;52.076;5.110;2023-06-19T11:05:36;30;29;
72329;PMS5003;69154;52.076;5.110;2023-06-19T11:08:02;35;34;
72329;PMS5003;69154;52.076;5.110;2023-06-19T11:10:28;37;35;
72329;PMS5003;69154;52.076;5.110;2023-06-19T11:12:53;36;32;
72329;PMS5003;69154;52.076;5.110;2023-06-19T11:15:18;33;32;
72329;PMS5003;69154;52.076;5.110;2023-06-19T11:17:44;35;34;
72329;PMS5003;69154;52.076;5.110;2023-06-19T11:20:10;32;31;
72329;PMS5003;69154;52.076;5.110;2023-06-19T11:22:37;34;32;
72329;PMS5003;69154;52.076;5.110;2023-06-19T11:25:02;31;31;
72329;PMS5003;69154;52.076;5.110;2023-06-19T11:27:26;30;29;
72329;PMS5003;69154;52.076;5.110;2023-06-19T11:29:54;28;28;
72329;PMS5003;69154;52.076;5.110;2023-06-19T11:32:18;27;26;
72329;PMS5003;69154;52.076;5.110;2023-06-19T11:34:43;28;27;
72329;PMS5003;69154;52.076;5.110;2023-06-19T11:37:12;34;32;
72329;PMS5003;69154;52.076;5.110;2023-06-19T11:39:34;27;27;
72329;PMS5003;69154;52.076;5.110;2023-06-19T11:41:59;26;26;
72329;PMS5003;69154;52.076;5.110;2023-06-19T11:44:24;22;22;
72329;PMS5003;69154;52.076;5.110;2023-06-19T11:46:50;26;26;
72329;PMS5003;69154;52.076;5.110;2023-06-19T11:49:16;28;28;
72329;PMS5003;69154;52.076;5.110;2023-06-19T11:51:41;29;29;
72329;PMS5003;69154;52.076;5.110;2023-06-19T11:54:07;28;28;
72329;PMS5003;69154;52.076;5.110;2023-06-19T11:56:32;29;28;
72329;PMS5003;69154;52.076;5.110;2023-06-19T11:58:58;29;28;
72329;PMS5003;69154;52.076;5.110;2023-06-19T12:01:23;29;29;
72329;PMS5003;69154;52.076;5.110;2023-06-19T12:03:48;24;23;
72329;PMS5003;69154;52.076;5.110;2023-06-19T12:06:13;29;27;
72329;PMS5003;69154;52.076;5.110;2023-06-19T12:08:39;31;30;
72329;PMS5003;69154;52.076;5.110;2023-06-19T12:11:04;29;28;
72329;PMS5003;69154;52.076;5.110;2023-06-19T12:13:29;25;24;
72329;PMS5003;69154;52.076;5.110;2023-06-19T12:15:54;30;29;
72329;PMS5003;69154;52.076;5.110;2023-06-19T12:18:20;27;27;
72329;PMS5003;69154;52.076;5.110;2023-06-19T12:20:45;29;29;
72329;PMS5003;69154;52.076;5.110;2023-06-19T12:23:10;34;31;
72329;PMS5003;69154;52.076;5.110;2023-06-19T12:25:36;28;28;
72329;PMS5003;69154;52.076;5.110;2023-06-19T12:28:01;30;30;
72329;PMS5003;69154;52.076;5.110;2023-06-19T12:30:27;27;26;
72329;PMS5003;69154;52.076;5.110;2023-06-19T12:32:52;24;23;
72329;PMS5003;69154;52.076;5.110;2023-06-19T12:35:17;23;23;
72329;PMS5003;69154;52.076;5.110;2023-06-19T12:37:43;26;26;
72329;PMS5003;69154;52.076;5.110;2023-06-19T12:40:09;22;22;
72329;PMS5003;69154;52.076;5.110;2023-06-19T12:42:34;24;24;
72329;PMS5003;69154;52.076;5.110;2023-06-19T12:45:00;25;24;
72329;PMS5003;69154;52.076;5.110;2023-06-19T12:47:25;25;25;
72329;PMS5003;69154;52.076;5.110;2023-06-19T12:49:50;21;21;
72329;PMS5003;69154;52.076;5.110;2023-06-19T12:52:16;26;26;
72329;PMS5003;69154;52.076;5.110;2023-06-19T12:54:42;30;28;
72329;PMS5003;69154;52.076;5.110;2023-06-19T12:57:07;29;29;
72329;PMS5003;69154;52.076;5.110;2023-06-19T12:59:32;24;24;
72329;PMS5003;69154;52.076;5.110;2023-06-19T13:01:58;24;24;
72329;PMS5003;69154;52.076;5.110;2023-06-19T13:04:22;22;21;
72329;PMS5003;69154;52.076;5.110;2023-06-19T13:06:48;23;23;
72329;PMS5003;69154;52.076;5.110;2023-06-19T13:09:13;24;23;
72329;PMS5003;69154;52.076;5.110;2023-06-19T13:11:38;24;22;
72329;PMS5003;69154;52.076;5.110;2023-06-19T13:14:04;19;19;
72329;PMS5003;69154;52.076;5.110;2023-06-19T13:16:30;20;19;
72329;PMS5003;69154;52.076;5.110;2023-06-19T13:18:54;19;19;
72329;PMS5003;69154;52.076;5.110;2023-06-19T13:21:19;21;21;
72329;PMS5003;69154;52.076;5.110;2023-06-19T13:23:45;19;19;
72329;PMS5003;69154;52.076;5.110;2023-06-19T13:26:10;19;19;
72329;PMS5003;69154;52.076;5.110;2023-06-19T13:28:35;21;21;
72329;PMS5003;69154;52.076;5.110;2023-06-19T13:31:01;25;24;
72329;PMS5003;69154;52.076;5.110;2023-06-19T13:33:27;18;18;
72329;PMS5003;69154;52.076;5.110;2023-06-19T13:35:52;17;16;
72329;PMS5003;69154;52.076;5.110;2023-06-19T13:38:18;17;17;
72329;PMS5003;69154;52.076;5.110;2023-06-19T13:40:44;18;18;
72329;PMS5003;69154;52.076;5.110;2023-06-19T13:43:09;16;15;
72329;PMS5003;69154;52.076;5.110;2023-06-19T13:45:34;18;17;
72329;PMS5003;69154;52.076;5.110;2023-06-19T13:48:00;18;17;
72329;PMS5003;69154;52.076;5.110;2023-06-19T13:50:24;15;14;
72329;PMS5003;69154;52.076;5.110;2023-06-19T13:52:50;17;17;
72329;PMS5003;69154;52.076;5.110;2023-06-19T13:55:15;18;17;
72329;PMS5003;69154;52.076;5.110;2023-06-19T13:57:41;14;14;
72329;PMS5003;69154;52.076;5.110;2023-06-19T14:00:06;13;13;
72329;PMS5003;69154;52.076;5.110;2023-06-19T14:02:32;17;17;
72329;PMS5003;69154;52.076;5.110;2023-06-19T14:04:57;14;14;
72329;PMS5003;69154;52.076;5.110;2023-06-19T14:07:22;17;16;
72329;PMS5003;69154;52.076;5.110;2023-06-19T14:09:48;15;15;
72329;PMS5003;69154;52.076;5.110;2023-06-19T14:12:13;15;15;
72329;PMS5003;69154;52.076;5.110;2023-06-19T14:14:38;15;14;
72329;PMS5003;69154;52.076;5.110;2023-06-19T14:17:04;14;14;
72329;PMS5003;69154;52.076;5.110;2023-06-19T14:19:29;14;14;
72329;PMS5003;69154;52.076;5.110;2023-06-19T14:21:55;15;15;
72329;PMS5003;69154;52.076;5.110;2023-06-19T14:24:20;17;17;
72329;PMS5003;69154;52.076;5.110;2023-06-19T14:26:45;13;12;
72329;PMS5003;69154;52.076;5.110;2023-06-19T14:29:10;12;11;
72329;PMS5003;69154;52.076;5.110;2023-06-19T14:31:36;16;16;
72329;PMS5003;69154;52.076;5.110;2023-06-19T14:34:01;15;15;
72329;PMS5003;69154;52.076;5.110;2023-06-19T14:36:27;17;16;
72329;PMS5003;69154;52.076;5.110;2023-06-19T14:38:52;14;14;
72329;PMS5003;69154;52.076;5.110;2023-06-19T14:41:17;14;13;
72329;PMS5003;69154;52.076;5.110;2023-06-19T14:43:42;14;13;
72329;PMS5003;69154;52.076;5.110;2023-06-19T14:46:08;18;17;
72329;PMS5003;69154;52.076;5.110;2023-06-19T14:48:33;14;14;
72329;PMS5003;69154;52.076;5.110;2023-06-19T14:51:00;15;15;
72329;PMS5003;69154;52.076;5.110;2023-06-19T14:53:24;16;15;
72329;PMS5003;69154;52.076;5.110;2023-06-19T14:55:49;13;13;
72329;PMS5003;69154;52.076;5.110;2023-06-19T14:58:14;16;14;
72329;PMS5003;69154;52.076;5.110;2023-06-19T15:00:40;17;17;
72329;PMS5003;69154;52.076;5.110;2023-06-19T15:03:05;12;12;
72329;PMS5003;69154;52.076;5.110;2023-06-19T15:05:31;14;13;
72329;PMS5003;69154;52.076;5.110;2023-06-19T15:07:56;18;17;
72329;PMS5003;69154;52.076;5.110;2023-06-19T15:10:21;13;13;
72329;PMS5003;69154;52.076;5.110;2023-06-19T15:12:47;15;15;
72329;PMS5003;69154;52.076;5.110;2023-06-19T15:15:12;14;14;
72329;PMS5003;69154;52.076;5.110;2023-06-19T15:17:38;13;13;
72329;PMS5003;69154;52.076;5.110;2023-06-19T15:20:03;11;11;
72329;PMS5003;69154;52.076;5.110;2023-06-19T15:22:29;10;10;
72329;PMS5003;69154;52.076;5.110;2023-06-19T15:24:54;13;12;
72329;PMS5003;69154;52.076;5.110;2023-06-19T15:27:19;15;14;
72329;PMS5003;69154;52.076;5.110;2023-06-19T15:29:44;15;14;
72329;PMS5003;69154;52.076;5.110;2023-06-19T15:32:10;13;13;
72329;PMS5003;69154;52.076;5.110;2023-06-19T15:34:35;12;11;
72329;PMS5003;69154;52.076;5.110;2023-06-19T15:37:01;12;12;
72329;PMS5003;69154;52.076;5.110;2023-06-19T15:39:26;13;13;
72329;PMS5003;69154;52.076;5.110;2023-06-19T15:41:51;15;15;
72329;PMS5003;69154;52.076;5.110;2023-06-19T15:44:17;15;15;
72329;PMS5003;69154;52.076;5.110;2023-06-19T15:46:42;13;13;
72329;PMS5003;69154;52.076;5.110;2023-06-19T15:49:07;18;18;
72329;PMS5003;69154;52.076;5.110;2023-06-19T15:51:32;15;15;
72329;PMS5003;69154;52.076;5.110;2023-06-19T15:53:58;13;13;
72329;PMS5003;69154;52.076;5.110;2023-06-19T15:56:23;14;13;
72329;PMS5003;69154;52.076;5.110;2023-06-19T15:58:48;14;13;
72329;PMS5003;69154;52.076;5.110;2023-06-19T16:01:14;14;13;
72329;PMS5003;69154;52.076;5.110;2023-06-19T16:03:40;16;16;
72329;PMS5003;69154;52.076;5.110;2023-06-19T16:06:05;15;15;
72329;PMS5003;69154;52.076;5.110;2023-06-19T16:08:30;15;14;